Time;durP1;ratioP1;P1;durP2;ratioP2;P2;SDS_P1;SDS_P2;PMS_P1;PMS_P2;Temp;Humidity;BMP_temperature;BMP_pressure;BME280_temperature;BME280_humidity;BME280_pressure;Samples;Min_cycle;Max_cycle;Signal;HPM_P1;HPM_P2
2023/01/17 00:01:59;;;;;;;9.93;4.70;;;;;;;;;;5075833;28;20025;-60
2023/01/17 00:09:58;;;;;;;11.23;4.93;;;;;;;;;;5075558;28;20497;-60
2023/01/17 00:12:25;;;;;;;10.32;4.78;;;;;;;;;;5075483;28;20020;-61
2023/01/17 00:14:53;;;;;;;13.60;5.68;;;;;;;;;;5074885;28;20024;-61
2023/01/17 00:17:19;;;;;;;7.65;4.88;;;;;;;;;;5084357;28;20039;-60
2023/01/17 01:35:20;;;;;;;3.30;1.08;;;;;;;;;;5073854;28;20040;-60
2023/01/17 01:37:46;;;;;;;1.52;0.90;;;;;;;;;;5073565;28;20032;-60
2023/01/17 01:40:12;;;;;;;3.47;1.10;;;;;;;;;;5073764;28;20063;-60
2023/01/17 01:42:47;;;;;;;1.00;0.63;;;;;;;;;;5074111;28;20056;-60
2023/01/17 01:45:18;;;;;;;0.57;0.50;;;;;;;;;;5073610;28;20028;-60
2023/01/17 01:47:44;;;;;;;1.17;0.50;;;;;;;;;;5073600;28;20016;-60
2023/01/17 01:50:11;;;;;;;0.80;0.68;;;;;;;;;;5073694;28;20436;-60
2023/01/17 01:52:41;;;;;;;3.08;0.60;;;;;;;;;;5073431;28;20055;-60
2023/01/17 01:55:10;;;;;;;3.22;0.80;;;;;;;;;;5073265;28;20104;-60
2023/01/17 01:57:40;;;;;;;0.93;0.50;;;;;;;;;;5080832;28;20031;-60
2023/01/17 02:00:28;;;;;;;1.00;0.63;;;;;;;;;;5053517;28;20032;-60
2023/01/17 02:02:56;;;;;;;2.58;0.47;;;;;;;;;;5053398;28;20040;-60
2023/01/17 02:05:23;;;;;;;0.40;0.40;;;;;;;;;;5052374;28;20029;-60
2023/01/17 02:07:51;;;;;;;0.82;0.50;;;;;;;;;;5060325;28;20031;-60
2023/01/17 02:10:17;;;;;;;0.70;0.60;;;;;;;;;;5072996;28;20020;-60
2023/01/17 02:12:44;;;;;;;1.73;0.60;;;;;;;;;;5073363;28;20107;-60
2023/01/17 02:15:11;;;;;;;0.75;0.60;;;;;;;;;;5073106;28;20024;-60
2023/01/17 02:17:47;;;;;;;1.83;0.60;;;;;;;;;;5060469;28;20031;-60
2023/01/17 02:20:20;;;;;;;0.93;0.55;;;;;;;;;;5093327;28;20032;-60
2023/01/17 02:22:52;;;;;;;0.88;0.70;;;;;;;;;;5093211;28;20028;-60
2023/01/17 02:25:24;;;;;;;0.50;0.50;;;;;;;;;;5091756;28;20027;-60
2023/01/17 02:27:50;;;;;;;1.00;0.52;;;;;;;;;;5092871;28;20035;-60
2023/01/17 02:30:32;;;;;;;0.50;0.45;;;;;;;;;;5093254;28;20024;-60
2023/01/17 02:33:05;;;;;;;1.42;0.60;;;;;;;;;;5093041;28;20024;-60
2023/01/17 02:35:31;;;;;;;0.75;0.50;;;;;;;;;;5092989;28;20048;-61
2023/01/17 02:37:59;;;;;;;0.68;0.40;;;;;;;;;;5092503;28;20102;-61
2023/01/17 02:40:33;;;;;;;4.15;0.60;;;;;;;;;;5092884;28;20068;-60
2023/01/17 02:43:04;;;;;;;1.60;0.60;;;;;;;;;;5092830;28;20164;-60
2023/01/17 02:45:30;;;;;;;0.68;0.50;;;;;;;;;;5092968;28;20050;-60
2023/01/17 02:47:57;;;;;;;2.17;0.50;;;;;;;;;;5092772;28;20020;-60
2023/01/17 02:50:25;;;;;;;1.13;0.50;;;;;;;;;;5092726;28;20024;-60
2023/01/17 02:53:29;;;;;;;4.20;0.40;;;;;;;;;;5092333;28;20374;-60
2023/01/17 02:56:09;;;;;;;0.50;0.50;;;;;;;;;;5010487;28;20426;-60
2023/01/17 02:58:43;;;;;;;1.27;0.40;;;;;;;;;;5010730;28;20418;-60
2023/01/17 03:01:22;;;;;;;0.85;0.50;;;;;;;;;;5010530;28;20157;-60
2023/01/17 03:03:54;;;;;;;0.90;0.43;;;;;;;;;;5010562;28;20038;-60
2023/01/17 03:06:20;;;;;;;;;;;;;;;;;;5010997;28;20597;-60
2023/01/17 03:08:47;;;;;;;0.57;0.45;;;;;;;;;;4995248;28;19988;-60
2023/01/17 03:11:14;;;;;;;0.43;0.38;;;;;;;;;;4990726;28;20034;-60
2023/01/17 03:13:41;;;;;;;2.50;0.60;;;;;;;;;;4990927;28;20034;-60
2023/01/17 03:16:27;;;;;;;2.10;0.80;;;;;;;;;;4990444;28;20034;-60
2023/01/17 03:18:53;;;;;;;0.77;0.63;;;;;;;;;;4990582;28;20052;-60
2023/01/17 03:21:20;;;;;;;0.60;0.50;;;;;;;;;;4990951;28;20054;-60
2023/01/17 03:23:46;;;;;;;0.85;0.63;;;;;;;;;;4990398;28;20048;-60
2023/01/17 03:26:12;;;;;;;1.13;0.50;;;;;;;;;;5016477;28;20040;-60
2023/01/17 03:28:38;;;;;;;1.15;0.60;;;;;;;;;;5072065;28;20082;-60
2023/01/17 03:31:04;;;;;;;0.50;0.50;;;;;;;;;;5071791;28;20440;-60
2023/01/17 03:33:30;;;;;;;2.17;0.63;;;;;;;;;;5072017;28;20024;-61
2023/01/17 03:35:57;;;;;;;2.85;0.77;;;;;;;;;;5078065;28;20059;-60
2023/01/17 03:38:25;;;;;;;1.85;0.65;;;;;;;;;;5092177;28;20048;-60
2023/01/17 03:40:52;;;;;;;0.60;0.60;;;;;;;;;;5080391;28;20040;-60
2023/01/17 03:43:18;;;;;;;0.40;0.40;;;;;;;;;;5062885;28;20054;-60
2023/01/17 03:45:44;;;;;;;1.75;0.60;;;;;;;;;;5092168;28;20422;-60
2023/01/17 03:48:10;;;;;;;0.60;0.60;;;;;;;;;;5091761;28;20392;-60
2023/01/17 03:50:36;;;;;;;1.35;0.60;;;;;;;;;;5091876;28;20024;-60
2023/01/17 03:53:02;;;;;;;0.57;0.50;;;;;;;;;;5091765;28;20031;-60
2023/01/17 03:55:28;;;;;;;0.55;0.40;;;;;;;;;;5092100;28;20405;-60
2023/01/17 03:57:54;;;;;;;0.75;0.50;;;;;;;;;;5091808;28;20043;-60
2023/01/17 04:00:21;;;;;;;0.70;0.50;;;;;;;;;;5091922;28;20477;-60
2023/01/17 04:02:47;;;;;;;2.40;0.50;;;;;;;;;;5092039;28;20111;-60
2023/01/17 04:05:13;;;;;;;0.70;0.47;;;;;;;;;;5091532;28;20055;-60
2023/01/17 04:07:40;;;;;;;1.73;0.70;;;;;;;;;;5085708;28;20028;-60
2023/01/17 04:10:06;;;;;;;6.18;0.90;;;;;;;;;;5071691;28;20017;-60
2023/01/17 04:12:32;;;;;;;5.80;0.80;;;;;;;;;;5070519;28;20402;-60
2023/01/17 04:14:58;;;;;;;1.02;0.68;;;;;;;;;;5071389;28;20032;-60
2023/01/17 04:17:24;;;;;;;2.85;0.70;;;;;;;;;;5071698;28;20448;-60
2023/01/17 04:19:50;;;;;;;1.75;0.65;;;;;;;;;;5071278;28;20442;-60
2023/01/17 04:22:17;;;;;;;4.00;0.90;;;;;;;;;;5071566;28;20033;-60
2023/01/17 04:24:43;;;;;;;3.55;0.70;;;;;;;;;;5071538;28;20482;-60
2023/01/17 04:27:12;;;;;;;2.95;0.77;;;;;;;;;;5071012;28;20085;-60
2023/01/17 04:29:39;;;;;;;1.88;0.73;;;;;;;;;;5074893;28;20509;-60
2023/01/17 04:32:05;;;;;;;2.22;0.70;;;;;;;;;;5074964;28;20482;-60
2023/01/17 04:34:31;;;;;;;4.55;1.10;;;;;;;;;;5074595;28;20047;-60
2023/01/17 04:36:57;;;;;;;3.00;1.13;;;;;;;;;;5074946;28;20454;-60
2023/01/17 04:39:23;;;;;;;2.80;0.70;;;;;;;;;;5075019;28;20017;-60
2023/01/17 04:41:49;;;;;;;1.65;0.80;;;;;;;;;;5075005;28;20036;-60
2023/01/17 04:44:16;;;;;;;1.13;0.55;;;;;;;;;;5074999;28;20028;-60
2023/01/17 04:46:42;;;;;;;1.98;0.80;;;;;;;;;;5074951;28;20051;-60
2023/01/17 04:49:08;;;;;;;1.98;0.55;;;;;;;;;;5074054;28;20051;-60
2023/01/17 04:51:34;;;;;;;1.30;0.57;;;;;;;;;;5074890;28;20029;-60
2023/01/17 04:54:00;;;;;;;2.95;0.93;;;;;;;;;;5074717;28;20104;-60
2023/01/17 04:56:26;;;;;;;2.80;0.85;;;;;;;;;;5074824;28;20032;-60
2023/01/17 04:58:52;;;;;;;5.00;0.77;;;;;;;;;;5074724;28;20028;-60
2023/01/17 05:01:18;;;;;;;4.30;0.70;;;;;;;;;;5074646;28;20031;-60
2023/01/17 05:03:44;;;;;;;2.97;0.77;;;;;;;;;;5074177;28;20029;-60
2023/01/17 05:06:10;;;;;;;1.75;0.80;;;;;;;;;;5074320;28;20078;-60
2023/01/17 05:08:37;;;;;;;3.55;0.70;;;;;;;;;;5074450;28;20031;-60
2023/01/17 05:11:03;;;;;;;1.35;0.70;;;;;;;;;;5074125;28;20108;-60
2023/01/17 05:13:29;;;;;;;1.65;0.75;;;;;;;;;;5074484;28;20017;-60
2023/01/17 05:15:56;;;;;;;3.88;0.80;;;;;;;;;;5074355;28;20103;-60
2023/01/17 05:18:22;;;;;;;1.70;0.50;;;;;;;;;;5074011;28;20035;-60
2023/01/17 05:20:48;;;;;;;1.48;0.60;;;;;;;;;;5074360;28;20052;-60
2023/01/17 05:23:15;;;;;;;2.58;0.70;;;;;;;;;;5074098;28;20029;-60
2023/01/17 05:25:43;;;;;;;1.33;0.80;;;;;;;;;;5073964;28;20059;-60
2023/01/17 05:28:09;;;;;;;6.07;1.13;;;;;;;;;;5073939;28;20020;-60
2023/01/17 05:30:35;;;;;;;2.17;0.90;;;;;;;;;;5071991;28;20070;-60
2023/01/17 05:33:01;;;;;;;9.43;0.80;;;;;;;;;;5072058;28;20070;-60
2023/01/17 05:35:29;;;;;;;1.70;0.60;;;;;;;;;;5072789;28;20040;-60
2023/01/17 05:37:55;;;;;;;1.63;0.70;;;;;;;;;;5072262;28;20037;-60
2023/01/17 05:40:23;;;;;;;7.60;0.85;;;;;;;;;;5070623;28;20036;-60
2023/01/17 05:42:50;;;;;;;1.83;0.77;;;;;;;;;;5075974;28;20028;-60
2023/01/17 05:45:17;;;;;;;1.52;0.75;;;;;;;;;;5073652;28;20028;-60
2023/01/17 05:47:43;;;;;;;2.40;0.77;;;;;;;;;;5065307;28;20405;-60
2023/01/17 05:50:14;;;;;;;5.28;0.90;;;;;;;;;;5074379;28;20024;-60
2023/01/17 05:52:40;;;;;;;3.47;0.95;;;;;;;;;;5074169;28;20029;-60
2023/01/17 05:55:07;;;;;;;4.97;1.00;;;;;;;;;;5073569;28;20424;-61
2023/01/17 05:57:33;;;;;;;2.40;0.82;;;;;;;;;;5073297;28;20029;-61
2023/01/17 06:00:00;;;;;;;3.33;0.95;;;;;;;;;;5076321;28;20118;-60
2023/01/17 06:02:26;;;;;;;0.95;0.70;;;;;;;;;;5091853;28;20438;-60
2023/01/17 06:04:52;;;;;;;3.47;0.95;;;;;;;;;;5061422;28;20082;-60
2023/01/17 06:07:18;;;;;;;1.85;0.90;;;;;;;;;;5066499;28;20840;-60
2023/01/17 06:09:44;;;;;;;7.70;0.95;;;;;;;;;;5065481;28;20021;-60
2023/01/17 06:12:11;;;;;;;1.55;0.85;;;;;;;;;;5061092;28;20493;-60
2023/01/17 06:14:37;;;;;;;2.80;0.80;;;;;;;;;;5066549;28;20035;-60
2023/01/17 06:17:04;;;;;;;5.05;0.93;;;;;;;;;;5069315;28;20024;-60
2023/01/17 06:19:30;;;;;;;2.88;0.90;;;;;;;;;;5070695;28;20107;-60
2023/01/17 06:21:56;;;;;;;2.05;0.95;;;;;;;;;;5069140;28;20032;-60
2023/01/17 06:24:22;;;;;;;2.17;0.90;;;;;;;;;;5075658;28;20020;-60
2023/01/17 06:26:48;;;;;;;6.53;1.30;;;;;;;;;;5074887;28;20021;-60
2023/01/17 06:29:14;;;;;;;5.32;1.33;;;;;;;;;;5069517;28;20107;-63
2023/01/17 06:31:40;;;;;;;2.25;1.67;;;;;;;;;;5080675;28;20017;-60
2023/01/17 06:34:07;;;;;;;5.25;1.77;;;;;;;;;;5082372;28;20020;-60
2023/01/17 06:36:33;;;;;;;8.57;1.67;;;;;;;;;;5081138;28;20522;-61
2023/01/17 06:38:59;;;;;;;4.47;1.33;;;;;;;;;;5069631;28;20032;-60
2023/01/17 06:41:25;;;;;;;5.60;2.42;;;;;;;;;;5073048;28;20444;-61
2023/01/17 06:43:55;;;;;;;6.82;1.70;;;;;;;;;;5088988;28;20063;-60
2023/01/17 06:46:22;;;;;;;4.78;2.40;;;;;;;;;;5075914;28;20114;-60
2023/01/17 06:48:48;;;;;;;5.22;2.10;;;;;;;;;;5092767;28;20102;-60
2023/01/17 06:51:14;;;;;;;5.47;2.00;;;;;;;;;;5092100;28;20024;-61
2023/01/17 06:53:40;;;;;;;9.48;3.13;;;;;;;;;;5074392;28;20074;-61
2023/01/17 06:56:07;;;;;;;7.43;2.92;;;;;;;;;;5072414;28;20469;-61
2023/01/17 06:58:33;;;;;;;7.45;4.40;;;;;;;;;;5072562;28;20033;-61
2023/01/17 07:01:05;;;;;;;5.70;2.70;;;;;;;;;;5072275;28;20020;-61
2023/01/17 07:03:31;;;;;;;7.07;2.60;;;;;;;;;;5071981;28;20063;-61
2023/01/17 07:06:00;;;;;;;3.72;2.72;;;;;;;;;;5072425;28;20071;-60
2023/01/17 07:08:26;;;;;;;14.27;3.40;;;;;;;;;;5071109;28;20107;-60
2023/01/17 07:10:57;;;;;;;22.42;7.47;;;;;;;;;;5071809;28;20389;-60
2023/01/17 07:13:23;;;;;;;15.93;4.93;;;;;;;;;;5072369;28;20020;-61
2023/01/17 07:15:49;;;;;;;10.18;4.40;;;;;;;;;;5072281;28;20032;-60
2023/01/17 07:18:19;;;;;;;13.90;5.05;;;;;;;;;;5074661;28;20039;-60
2023/01/17 07:20:45;;;;;;;13.45;5.75;;;;;;;;;;5085078;28;20033;-60
2023/01/17 07:23:12;;;;;;;16.20;6.82;;;;;;;;;;5072142;28;20042;-60
2023/01/17 07:25:38;;;;;;;19.95;5.75;;;;;;;;;;5072186;28;20032;-60
2023/01/17 07:28:04;;;;;;;14.07;6.03;;;;;;;;;;5072021;28;20021;-60
2023/01/17 07:30:30;;;;;;;13.82;5.35;;;;;;;;;;5072018;28;20486;-61
2023/01/17 07:32:56;;;;;;;16.85;5.68;;;;;;;;;;5072239;28;20023;-60
2023/01/17 07:35:26;;;;;;;10.52;4.80;;;;;;;;;;5077120;28;20509;-60
2023/01/17 07:37:53;;;;;;;12.52;4.57;;;;;;;;;;5092426;28;20382;-60
2023/01/17 07:40:21;;;;;;;8.48;3.67;;;;;;;;;;5092159;28;20050;-60
2023/01/17 07:42:47;;;;;;;10.68;4.70;;;;;;;;;;5085361;28;20402;-60
2023/01/17 07:45:14;;;;;;;11.70;4.32;;;;;;;;;;5071900;28;20029;-60
2023/01/17 07:47:40;;;;;;;6.45;3.40;;;;;;;;;;5071900;28;20029;-60
2023/01/17 07:50:07;;;;;;;9.35;3.30;;;;;;;;;;5071614;28;20462;-60
2023/01/17 07:52:33;;;;;;;14.00;3.58;;;;;;;;;;5071861;28;20062;-60
2023/01/17 07:54:59;;;;;;;7.82;3.35;;;;;;;;;;5065042;28;20036;-60
2023/01/17 07:57:25;;;;;;;11.15;2.90;;;;;;;;;;5062839;28;20028;-60
2023/01/17 07:59:51;;;;;;;13.90;3.33;;;;;;;;;;5059396;28;20031;-60
2023/01/17 08:02:22;;;;;;;16.25;3.58;;;;;;;;;;5062188;28;20017;-60
2023/01/17 08:04:48;;;;;;;13.00;3.50;;;;;;;;;;5064143;28;20024;-60
2023/01/17 08:07:15;;;;;;;11.38;2.85;;;;;;;;;;5066535;28;20021;-60
2023/01/17 08:09:42;;;;;;;9.73;3.70;;;;;;;;;;5071559;28;20083;-60
2023/01/17 08:12:08;;;;;;;9.25;3.30;;;;;;;;;;5073333;28;20107;-60
2023/01/17 08:14:34;;;;;;;12.38;3.63;;;;;;;;;;5065104;28;20508;-60
2023/01/17 08:17:07;;;;;;;7.28;2.90;;;;;;;;;;5065712;28;20021;-60
2023/01/17 08:19:33;;;;;;;10.88;4.07;;;;;;;;;;5066393;28;20024;-60
2023/01/17 08:21:59;;;;;;;10.52;2.95;;;;;;;;;;5065028;28;20040;-60
2023/01/17 08:24:25;;;;;;;7.03;2.72;;;;;;;;;;5059986;28;20024;-60
2023/01/17 08:26:53;;;;;;;7.45;2.90;;;;;;;;;;5072175;28;20024;-60
2023/01/17 08:29:20;;;;;;;11.40;2.70;;;;;;;;;;5068587;28;20025;-60
2023/01/17 08:31:46;;;;;;;10.10;2.88;;;;;;;;;;5068365;28;20033;-60
2023/01/17 08:34:13;;;;;;;9.27;3.53;;;;;;;;;;5068731;28;20504;-60
2023/01/17 08:36:41;;;;;;;7.03;2.95;;;;;;;;;;5061621;28;20025;-60
2023/01/17 08:39:08;;;;;;;9.73;3.20;;;;;;;;;;5066035;28;20032;-60
2023/01/17 08:41:34;;;;;;;4.38;2.70;;;;;;;;;;5069825;28;20024;-60
2023/01/17 08:44:01;;;;;;;49.78;20.70;;;;;;;;;;5066164;28;20035;-60
2023/01/17 08:46:27;;;;;;;55.13;23.90;;;;;;;;;;5069458;28;20101;-60
2023/01/17 08:48:57;;;;;;;27.92;11.40;;;;;;;;;;5060821;28;20021;-60
2023/01/17 08:51:27;;;;;;;25.90;11.68;;;;;;;;;;5058563;28;20521;-60
2023/01/17 08:53:54;;;;;;;13.95;4.35;;;;;;;;;;5065463;28;20020;-60
2023/01/17 08:56:20;;;;;;;11.95;4.60;;;;;;;;;;5072819;28;20017;-60
2023/01/17 08:58:46;;;;;;;27.13;9.27;;;;;;;;;;5070877;28;20033;-60
2023/01/17 09:01:12;;;;;;;18.00;8.77;;;;;;;;;;5070391;28;20405;-60
2023/01/17 09:03:38;;;;;;;11.82;6.70;;;;;;;;;;5067432;28;20028;-60
2023/01/17 09:06:08;;;;;;;11.32;5.93;;;;;;;;;;5080390;28;20130;-60
2023/01/17 09:08:35;;;;;;;12.48;5.07;;;;;;;;;;5071550;28;20021;-60
2023/01/17 09:11:05;;;;;;;14.10;5.10;;;;;;;;;;5070023;28;20032;-60
2023/01/17 09:13:31;;;;;;;10.45;5.03;;;;;;;;;;5064101;28;20040;-60
2023/01/17 09:15:58;;;;;;;7.47;5.60;;;;;;;;;;5069753;28;20382;-60
2023/01/17 09:18:25;;;;;;;17.35;4.55;;;;;;;;;;5070668;28;20047;-60
2023/01/17 09:20:53;;;;;;;15.15;3.33;;;;;;;;;;5067919;28;20122;-60
2023/01/17 09:23:24;;;;;;;8.18;2.60;;;;;;;;;;5063564;28;20029;-60
2023/01/17 09:25:54;;;;;;;13.63;4.22;;;;;;;;;;5061734;28;20053;-60
2023/01/17 09:28:20;;;;;;;16.40;5.82;;;;;;;;;;5069201;28;20028;-60
2023/01/17 09:30:46;;;;;;;12.85;3.55;;;;;;;;;;5066976;28;20025;-60
2023/01/17 09:33:12;;;;;;;27.67;14.55;;;;;;;;;;5065643;28;20049;-60
2023/01/17 09:35:38;;;;;;;15.50;5.60;;;;;;;;;;5067069;28;20131;-60
2023/01/17 09:38:06;;;;;;;9.15;4.00;;;;;;;;;;5065503;28;20028;-60
2023/01/17 09:40:32;;;;;;;16.38;3.60;;;;;;;;;;5071411;28;20033;-60
2023/01/17 09:43:04;;;;;;;8.88;2.80;;;;;;;;;;5062514;28;20364;-60
2023/01/17 09:45:32;;;;;;;13.50;2.97;;;;;;;;;;5069633;28;20036;-61
2023/01/17 09:47:59;;;;;;;17.50;5.93;;;;;;;;;;5071894;28;20024;-61
2023/01/17 09:50:51;;;;;;;13.20;5.22;;;;;;;;;;5070375;28;20012;-60
2023/01/17 09:53:22;;;;;;;23.60;4.40;;;;;;;;;;5060863;28;20043;-61
2023/01/17 09:55:53;;;;;;;16.25;2.60;;;;;;;;;;5063043;28;20028;-60
2023/01/17 09:58:22;;;;;;;9.00;2.95;;;;;;;;;;5060963;28;20035;-60
2023/01/17 10:01:11;;;;;;;12.50;2.40;;;;;;;;;;5066835;28;20041;-60
2023/01/17 10:03:40;;;;;;;18.42;4.45;;;;;;;;;;5062194;28;20029;-61
2023/01/17 10:06:18;;;;;;;14.88;3.92;;;;;;;;;;5072387;28;20513;-60
2023/01/17 10:09:09;;;;;;;10.75;3.72;;;;;;;;;;5061234;28;20403;-60
2023/01/17 10:11:47;;;;;;;11.50;4.15;;;;;;;;;;5070250;28;20078;-61
2023/01/17 10:14:19;;;;;;;11.57;4.00;;;;;;;;;;5060392;28;20052;-60
2023/01/17 10:16:51;;;;;;;14.13;4.35;;;;;;;;;;5067036;28;20086;-61
2023/01/17 10:19:20;;;;;;;12.80;4.25;;;;;;;;;;5061599;28;20025;-61
2023/01/17 10:22:06;;;;;;;10.20;3.45;;;;;;;;;;5065043;28;20040;-60
2023/01/17 10:24:32;;;;;;;16.00;4.05;;;;;;;;;;5063304;28;20064;-60
2023/01/17 10:27:00;;;;;;;23.48;6.05;;;;;;;;;;5054876;28;20471;-61
2023/01/17 10:29:31;;;;;;;14.63;3.95;;;;;;;;;;5064161;28;20022;-61
2023/01/17 10:32:01;;;;;;;27.17;9.32;;;;;;;;;;5062530;28;20448;-60
2023/01/17 10:34:43;;;;;;;41.47;15.13;;;;;;;;;;5069580;28;20045;-60
2023/01/17 10:37:18;;;;;;;33.07;13.40;;;;;;;;;;5070712;28;20028;-60
2023/01/17 10:39:47;;;;;;;14.68;5.38;;;;;;;;;;5065001;28;20025;-61
2023/01/17 10:42:15;;;;;;;15.45;4.90;;;;;;;;;;5069393;28;20065;-60
2023/01/17 10:44:57;;;;;;;22.20;4.72;;;;;;;;;;5071859;28;20031;-61
2023/01/17 10:47:26;;;;;;;20.52;5.53;;;;;;;;;;5068638;28;20123;-61
2023/01/17 10:49:56;;;;;;;17.08;5.55;;;;;;;;;;5062327;28;20124;-61
2023/01/17 10:52:25;;;;;;;13.95;3.20;;;;;;;;;;5062644;28;20095;-60
2023/01/17 10:55:10;;;;;;;10.80;3.92;;;;;;;;;;5059586;28;20017;-61
2023/01/17 10:57:39;;;;;;;11.90;2.38;;;;;;;;;;5063367;28;20063;-60
2023/01/17 11:00:17;;;;;;;15.40;3.03;;;;;;;;;;5062938;28;20044;-60
2023/01/17 11:02:48;;;;;;;7.68;2.40;;;;;;;;;;5064730;28;20017;-60
2023/01/17 11:05:32;;;;;;;13.25;3.60;;;;;;;;;;5071572;28;20036;-61
2023/01/17 11:08:00;;;;;;;10.20;3.38;;;;;;;;;;5060825;28;20029;-60
2023/01/17 11:10:39;;;;;;;17.13;4.82;;;;;;;;;;5061899;28;20013;-61
2023/01/17 11:13:25;;;;;;;17.98;3.90;;;;;;;;;;5064449;28;20440;-61
2023/01/17 11:15:56;;;;;;;12.38;3.88;;;;;;;;;;5069453;28;20522;-61
2023/01/17 11:18:26;;;;;;;12.52;3.28;;;;;;;;;;5068235;28;20041;-61
2023/01/17 11:20:53;;;;;;;31.85;5.43;;;;;;;;;;5061670;28;20041;-60
2023/01/17 11:23:33;;;;;;;11.77;2.65;;;;;;;;;;5064824;28;20104;-60
2023/01/17 11:26:04;;;;;;;7.45;1.90;;;;;;;;;;5059203;28;20083;-60
2023/01/17 11:28:32;;;;;;;9.30;2.05;;;;;;;;;;5060142;28;20050;-60
2023/01/17 11:30:59;;;;;;;11.38;2.17;;;;;;;;;;5059131;28;20020;-60
2023/01/17 11:33:43;;;;;;;9.55;1.90;;;;;;;;;;5054110;28;20029;-60
2023/01/17 11:36:26;;;;;;;7.18;1.77;;;;;;;;;;5069403;28;20052;-60
2023/01/17 11:38:55;;;;;;;11.80;1.58;;;;;;;;;;5059195;28;20033;-60
2023/01/17 11:41:22;;;;;;;8.65;1.63;;;;;;;;;;5069980;28;20035;-61
2023/01/17 11:43:50;;;;;;;4.65;1.15;;;;;;;;;;5069643;28;20020;-61
2023/01/17 11:46:17;;;;;;;12.77;2.28;;;;;;;;;;5062119;28;20037;-61
2023/01/17 11:48:46;;;;;;;5.75;1.40;;;;;;;;;;5063275;28;20054;-61
2023/01/17 11:51:18;;;;;;;12.77;1.90;;;;;;;;;;5067919;28;20032;-61
2023/01/17 11:53:48;;;;;;;21.90;4.78;;;;;;;;;;5066666;28;20721;-61
2023/01/17 11:56:19;;;;;;;13.05;1.98;;;;;;;;;;5067786;28;20033;-60
2023/01/17 11:58:46;;;;;;;6.35;1.77;;;;;;;;;;5068909;28;20021;-60
2023/01/17 12:01:12;;;;;;;8.18;1.63;;;;;;;;;;5063849;28;20023;-60
2023/01/17 12:03:44;;;;;;;9.45;1.52;;;;;;;;;;5066405;28;20513;-60
2023/01/17 12:06:13;;;;;;;4.43;1.43;;;;;;;;;;5062236;28;20029;-61
2023/01/17 12:08:45;;;;;;;3.47;0.93;;;;;;;;;;5060274;28;20756;-61
2023/01/17 12:11:29;;;;;;;13.15;1.88;;;;;;;;;;5065455;28;20028;-61
2023/01/17 12:14:01;;;;;;;5.30;1.33;;;;;;;;;;5063926;28;20025;-61
2023/01/17 12:16:36;;;;;;;9.90;1.13;;;;;;;;;;5070414;28;20025;-61
2023/01/17 12:19:02;;;;;;;10.68;1.85;;;;;;;;;;5071563;28;20028;-61
2023/01/17 12:21:34;;;;;;;9.65;1.80;;;;;;;;;;5069276;28;20063;-61
2023/01/17 12:24:19;;;;;;;10.43;1.48;;;;;;;;;;5068317;28;20367;-61
2023/01/17 12:26:52;;;;;;;7.07;1.17;;;;;;;;;;5073333;28;20044;-61
2023/01/17 12:29:18;;;;;;;10.45;1.73;;;;;;;;;;5070293;28;20052;-61
2023/01/17 12:31:44;;;;;;;11.18;2.15;;;;;;;;;;5065310;28;20025;-61
2023/01/17 12:34:29;;;;;;;7.05;1.13;;;;;;;;;;5053250;28;20021;-61
2023/01/17 12:37:15;;;;;;;8.43;1.63;;;;;;;;;;5067179;28;20112;-61
2023/01/17 12:39:44;;;;;;;18.40;2.03;;;;;;;;;;5064112;28;20020;-61
2023/01/17 12:42:13;;;;;;;6.45;1.20;;;;;;;;;;5061342;28;20040;-61
2023/01/17 12:44:39;;;;;;;13.02;1.42;;;;;;;;;;5066768;28;20029;-61
2023/01/17 12:47:06;;;;;;;4.30;1.10;;;;;;;;;;5067375;28;20028;-61
2023/01/17 12:49:50;;;;;;;6.65;1.35;;;;;;;;;;5071757;28;20467;-61
2023/01/17 12:52:44;;;;;;;6.38;1.10;;;;;;;;;;5075284;28;20115;-61
2023/01/17 12:55:16;;;;;;;2.05;0.90;;;;;;;;;;5068570;28;20024;-61
2023/01/17 12:57:51;;;;;;;4.22;1.52;;;;;;;;;;5077567;28;20401;-61
2023/01/17 13:00:22;;;;;;;6.20;1.33;;;;;;;;;;5073830;28;20020;-61
2023/01/17 13:03:11;;;;;;;6.05;1.63;;;;;;;;;;5074338;28;20052;-60
2023/01/17 13:05:43;;;;;;;8.00;1.52;;;;;;;;;;5031829;28;20056;-61
2023/01/17 13:08:22;;;;;;;8.10;1.80;;;;;;;;;;5031183;28;20103;-61
2023/01/17 13:10:50;;;;;;;6.85;1.73;;;;;;;;;;5031340;28;20033;-61
2023/01/17 13:13:21;;;;;;;3.00;1.00;;;;;;;;;;5031025;28;20029;-61
2023/01/17 13:15:48;;;;;;;4.35;1.48;;;;;;;;;;5030422;28;20041;-61
2023/01/17 13:18:21;;;;;;;6.68;1.40;;;;;;;;;;5031145;28;20021;-60
2023/01/17 13:20:47;;;;;;;;;;;;;;;;;;5026393;28;20026;-61
2023/01/17 13:23:27;;;;;;;6.03;1.20;;;;;;;;;;5027676;28;19924;-61
2023/01/17 13:25:55;;;;;;;12.18;1.40;;;;;;;;;;5030197;28;20120;-61
2023/01/17 13:28:40;;;;;;;5.85;1.38;;;;;;;;;;5030880;28;20137;-61
2023/01/17 13:31:18;;;;;;;6.78;1.52;;;;;;;;;;5030943;28;20075;-61
2023/01/17 13:34:02;;;;;;;11.02;1.63;;;;;;;;;;5030939;28;20116;-61
2023/01/17 13:36:37;;;;;;;4.68;1.50;;;;;;;;;;5031105;28;20477;-61
2023/01/17 13:39:22;;;;;;;9.60;1.83;;;;;;;;;;5028691;28;20155;-61
2023/01/17 13:41:53;;;;;;;5.82;1.67;;;;;;;;;;5032043;28;20044;-61
2023/01/17 13:44:21;;;;;;;10.05;1.65;;;;;;;;;;5071296;28;20501;-61
2023/01/17 13:47:06;;;;;;;10.52;1.65;;;;;;;;;;5066762;28;20017;-61
2023/01/17 13:49:39;;;;;;;7.43;1.38;;;;;;;;;;5072898;28;20054;-61
2023/01/17 13:52:14;;;;;;;10.15;1.52;;;;;;;;;;5071178;28;20074;-61
2023/01/17 13:54:43;;;;;;;11.43;2.53;;;;;;;;;;5070057;28;20025;-61
2023/01/17 13:57:25;;;;;;;10.23;1.70;;;;;;;;;;5076155;28;20032;-61
2023/01/17 13:59:55;;;;;;;8.13;1.88;;;;;;;;;;5067155;28;20429;-61
2023/01/17 14:02:27;;;;;;;13.90;1.92;;;;;;;;;;5061096;28;20035;-61
2023/01/17 14:05:22;;;;;;;8.80;1.65;;;;;;;;;;5067347;28;20552;-61
2023/01/17 14:07:48;;;;;;;10.15;2.63;;;;;;;;;;5073167;28;20096;-61
2023/01/17 14:10:33;;;;;;;10.13;2.38;;;;;;;;;;5074392;28;20070;-61
2023/01/17 14:13:00;;;;;;;4.82;1.42;;;;;;;;;;5073627;28;20543;-61
2023/01/17 14:15:27;;;;;;;4.32;1.52;;;;;;;;;;5072729;28;20504;-61
2023/01/17 14:17:55;;;;;;;8.63;1.80;;;;;;;;;;5075034;28;20033;-61
2023/01/17 14:20:31;;;;;;;7.78;1.30;;;;;;;;;;5072789;28;20462;-61
2023/01/17 14:22:59;;;;;;;3.55;1.23;;;;;;;;;;5072315;28;20037;-61
2023/01/17 14:25:29;;;;;;;5.75;1.75;;;;;;;;;;5089851;28;20020;-61
2023/01/17 14:28:03;;;;;;;11.00;1.48;;;;;;;;;;5073219;28;20020;-61
2023/01/17 14:30:32;;;;;;;7.68;1.45;;;;;;;;;;5072169;28;20549;-62
2023/01/17 14:33:01;;;;;;;2.35;1.10;;;;;;;;;;5072081;28;20020;-62
2023/01/17 14:35:30;;;;;;;10.77;1.50;;;;;;;;;;5072210;28;20053;-62
2023/01/17 14:38:04;;;;;;;9.55;1.92;;;;;;;;;;5072357;28;20435;-62
2023/01/17 14:40:34;;;;;;;12.05;1.30;;;;;;;;;;5067792;28;20453;-62
2023/01/17 14:43:01;;;;;;;6.30;1.10;;;;;;;;;;5065124;28;20025;-62
2023/01/17 14:45:28;;;;;;;5.93;0.82;;;;;;;;;;5074550;28;20485;-62
2023/01/17 14:47:56;;;;;;;5.80;1.20;;;;;;;;;;5071849;28;20477;-62
2023/01/17 14:50:24;;;;;;;8.73;1.30;;;;;;;;;;5068749;28;20024;-62
2023/01/17 14:53:09;;;;;;;5.32;0.93;;;;;;;;;;5071342;28;20070;-62
2023/01/17 14:55:35;;;;;;;7.50;0.98;;;;;;;;;;5073179;28;20492;-62
2023/01/17 14:58:01;;;;;;;2.63;0.90;;;;;;;;;;5070933;28;20043;-62
2023/01/17 15:00:28;;;;;;;1.08;0.60;;;;;;;;;;5071853;28;20028;-62
2023/01/17 15:02:54;;;;;;;2.00;0.57;;;;;;;;;;5069744;28;20024;-62
2023/01/17 15:05:22;;;;;;;1.73;0.45;;;;;;;;;;5072040;28;20263;-62
2023/01/17 15:07:51;;;;;;;5.47;1.08;;;;;;;;;;5077929;28;20020;-62
2023/01/17 15:10:29;;;;;;;3.20;1.00;;;;;;;;;;5072385;28;20017;-62
2023/01/17 15:12:56;;;;;;;4.25;0.60;;;;;;;;;;5069757;28;20077;-62
2023/01/17 15:15:26;;;;;;;3.65;0.80;;;;;;;;;;5071833;28;20056;-62
2023/01/17 15:18:06;;;;;;;1.95;0.88;;;;;;;;;;5058982;28;20036;-61
2023/01/17 15:20:33;;;;;;;4.68;0.88;;;;;;;;;;5056498;28;20512;-61
2023/01/17 15:22:59;;;;;;;2.97;1.00;;;;;;;;;;5058824;28;20052;-62
2023/01/17 15:25:25;;;;;;;13.50;2.33;;;;;;;;;;5051524;28;20028;-61
2023/01/17 15:27:51;;;;;;;5.75;1.17;;;;;;;;;;5056800;28;20032;-62
2023/01/17 15:30:18;;;;;;;6.40;1.00;;;;;;;;;;5055980;28;20057;-61
2023/01/17 15:32:46;;;;;;;4.88;0.95;;;;;;;;;;5056955;28;20374;-61
2023/01/17 15:35:16;;;;;;;4.72;0.85;;;;;;;;;;5055002;28;20049;-61
2023/01/17 15:37:42;;;;;;;8.10;1.90;;;;;;;;;;5056384;28;20095;-61
2023/01/17 15:40:30;;;;;;;3.90;1.20;;;;;;;;;;5054151;28;20025;-62
2023/01/17 15:42:57;;;;;;;5.70;1.20;;;;;;;;;;5072985;28;20033;-61
2023/01/17 15:45:27;;;;;;;4.93;0.93;;;;;;;;;;5074689;28;20529;-61
2023/01/17 15:47:53;;;;;;;6.28;1.20;;;;;;;;;;5062761;28;20028;-62
2023/01/17 15:50:20;;;;;;;4.05;1.30;;;;;;;;;;5074191;28;20423;-62
2023/01/17 15:52:50;;;;;;;14.68;1.33;;;;;;;;;;5073041;28;20077;-62
2023/01/17 15:55:21;;;;;;;8.57;1.58;;;;;;;;;;5073651;28;20430;-62
2023/01/17 15:57:48;;;;;;;8.43;1.40;;;;;;;;;;5072369;28;20029;-62
2023/01/17 16:00:20;;;;;;;10.02;2.00;;;;;;;;;;5073035;28;20024;-62
2023/01/17 16:02:48;;;;;;;5.30;1.25;;;;;;;;;;5069640;28;20013;-62
2023/01/17 16:05:24;;;;;;;11.93;1.52;;;;;;;;;;5078178;28;20029;-62
2023/01/17 16:07:51;;;;;;;6.43;1.75;;;;;;;;;;5072779;28;20032;-62
2023/01/17 16:10:19;;;;;;;12.88;2.10;;;;;;;;;;5076298;28;20473;-62
2023/01/17 16:12:45;;;;;;;9.90;1.75;;;;;;;;;;5081336;28;20112;-62
2023/01/17 16:15:12;;;;;;;7.63;1.83;;;;;;;;;;5071424;28;20036;-61